sensor_id;sensor_type;location;lat;lon;timestamp;P1;durP1;ratioP1;P2;durP2;ratioP2
46322;SDS011;32044;52.386;13.278;2023-03-01T00:01:18;35.67;;;19.63;;
46322;SDS011;32044;52.386;13.278;2023-03-01T00:03:47;25.80;;;15.10;;
46322;SDS011;32044;52.386;13.278;2023-03-01T00:06:15;38.03;;;20.55;;
46322;SDS011;32044;52.386;13.278;2023-03-01T00:08:42;39.97;;;21.27;;
46322;SDS011;32044;52.386;13.278;2023-03-01T00:11:11;41.33;;;22.00;;
46322;SDS011;32044;52.386;13.278;2023-03-01T00:13:40;38.63;;;21.23;;
46322;SDS011;32044;52.386;13.278;2023-03-01T00:16:09;35.65;;;20.60;;
46322;SDS011;32044;52.386;13.278;2023-03-01T00:18:40;35.67;;;20.73;;
46322;SDS011;32044;52.386;13.278;2023-03-01T00:21:07;36.78;;;20.15;;
46322;SDS011;32044;52.386;13.278;2023-03-01T00:23:35;36.28;;;19.08;;
46322;SDS011;32044;52.386;13.278;2023-03-01T00:26:05;33.42;;;19.30;;
46322;SDS011;32044;52.386;13.278;2023-03-01T00:28:33;34.50;;;18.55;;
46322;SDS011;32044;52.386;13.278;2023-03-01T00:31:02;35.40;;;19.58;;
46322;SDS011;32044;52.386;13.278;2023-03-01T00:33:30;36.53;;;19.67;;
46322;SDS011;32044;52.386;13.278;2023-03-01T00:35:59;32.97;;;19.83;;
46322;SDS011;32044;52.386;13.278;2023-03-01T00:38:27;35.40;;;21.48;;
46322;SDS011;32044;52.386;13.278;2023-03-01T00:40:55;35.25;;;20.13;;
46322;SDS011;32044;52.386;13.278;2023-03-01T00:43:22;34.53;;;19.70;;
46322;SDS011;32044;52.386;13.278;2023-03-01T00:45:50;38.78;;;20.88;;
46322;SDS011;32044;52.386;13.278;2023-03-01T00:48:17;36.42;;;21.48;;
46322;SDS011;32044;52.386;13.278;2023-03-01T00:50:45;44.15;;;22.33;;
46322;SDS011;32044;52.386;13.278;2023-03-01T00:53:14;38.03;;;21.85;;
46322;SDS011;32044;52.386;13.278;2023-03-01T00:55:41;41.83;;;23.70;;
46322;SDS011;32044;52.386;13.278;2023-03-01T00:58:08;40.40;;;22.95;;
46322;SDS011;32044;52.386;13.278;2023-03-01T01:00:36;36.55;;;21.98;;
46322;SDS011;32044;52.386;13.278;2023-03-01T01:03:03;38.88;;;22.88;;
46322;SDS011;32044;52.386;13.278;2023-03-01T01:05:33;35.80;;;21.60;;
46322;SDS011;32044;52.386;13.278;2023-03-01T01:08:01;38.72;;;22.27;;
46322;SDS011;32044;52.386;13.278;2023-03-01T01:10:30;37.25;;;21.05;;
46322;SDS011;32044;52.386;13.278;2023-03-01T01:12:58;39.58;;;20.85;;
46322;SDS011;32044;52.386;13.278;2023-03-01T01:15:25;35.47;;;21.48;;
46322;SDS011;32044;52.386;13.278;2023-03-01T01:17:53;41.13;;;22.75;;
46322;SDS011;32044;52.386;13.278;2023-03-01T01:20:20;43.40;;;22.85;;
46322;SDS011;32044;52.386;13.278;2023-03-01T01:22:48;44.33;;;24.83;;
46322;SDS011;32044;52.386;13.278;2023-03-01T01:25:17;44.38;;;25.50;;
46322;SDS011;32044;52.386;13.278;2023-03-01T01:27:46;58.53;;;29.05;;
46322;SDS011;32044;52.386;13.278;2023-03-01T01:30:13;49.97;;;29.73;;
46322;SDS011;32044;52.386;13.278;2023-03-01T01:32:41;54.83;;;30.90;;
46322;SDS011;32044;52.386;13.278;2023-03-01T01:35:09;58.85;;;30.92;;
46322;SDS011;32044;52.386;13.278;2023-03-01T01:37:36;59.88;;;31.77;;
46322;SDS011;32044;52.386;13.278;2023-03-01T01:40:04;51.53;;;29.95;;
46322;SDS011;32044;52.386;13.278;2023-03-01T01:42:32;56.42;;;29.92;;
46322;SDS011;32044;52.386;13.278;2023-03-01T01:48:00;53.70;;;29.27;;
46322;SDS011;32044;52.386;13.278;2023-03-01T01:50:30;54.15;;;30.52;;
46322;SDS011;32044;52.386;13.278;2023-03-01T01:53:05;55.42;;;31.48;;
46322;SDS011;32044;52.386;13.278;2023-03-01T01:55:34;58.42;;;31.38;;
46322;SDS011;32044;52.386;13.278;2023-03-01T01:58:04;53.08;;;29.88;;
46322;SDS011;32044;52.386;13.278;2023-03-01T02:00:34;54.45;;;29.10;;
46322;SDS011;32044;52.386;13.278;2023-03-01T02:03:03;48.88;;;29.00;;
46322;SDS011;32044;52.386;13.278;2023-03-01T02:05:34;34.00;;;20.13;;
46322;SDS011;32044;52.386;13.278;2023-03-01T02:08:04;45.15;;;25.63;;
46322;SDS011;32044;52.386;13.278;2023-03-01T02:10:32;52.00;;;27.52;;
46322;SDS011;32044;52.386;13.278;2023-03-01T02:13:00;48.97;;;27.80;;
46322;SDS011;32044;52.386;13.278;2023-03-01T02:15:31;52.47;;;28.17;;
46322;SDS011;32044;52.386;13.278;2023-03-01T02:18:00;48.83;;;27.50;;
46322;SDS011;32044;52.386;13.278;2023-03-01T02:20:33;53.47;;;26.60;;
46322;SDS011;32044;52.386;13.278;2023-03-01T02:23:02;43.25;;;24.60;;
46322;SDS011;32044;52.386;13.278;2023-03-01T02:25:35;40.10;;;23.95;;
46322;SDS011;32044;52.386;13.278;2023-03-01T02:28:05;43.28;;;23.75;;
46322;SDS011;32044;52.386;13.278;2023-03-01T02:30:38;43.30;;;24.88;;
46322;SDS011;32044;52.386;13.278;2023-03-01T02:33:26;46.85;;;25.35;;
46322;SDS011;32044;52.386;13.278;2023-03-01T02:35:53;44.75;;;25.08;;
46322;SDS011;32044;52.386;13.278;2023-03-01T02:38:22;42.92;;;23.95;;
46322;SDS011;32044;52.386;13.278;2023-03-01T02:40:50;45.03;;;25.83;;
46322;SDS011;32044;52.386;13.278;2023-03-01T02:43:18;44.20;;;26.60;;
46322;SDS011;32044;52.386;13.278;2023-03-01T02:45:51;41.85;;;24.90;;
46322;SDS011;32044;52.386;13.278;2023-03-01T02:48:19;39.60;;;23.50;;
46322;SDS011;32044;52.386;13.278;2023-03-01T02:51:02;45.47;;;27.17;;
46322;SDS011;32044;52.386;13.278;2023-03-01T02:53:35;45.22;;;24.75;;
46322;SDS011;32044;52.386;13.278;2023-03-01T02:56:06;41.67;;;23.00;;
46322;SDS011;32044;52.386;13.278;2023-03-01T02:58:39;42.05;;;22.80;;
46322;SDS011;32044;52.386;13.278;2023-03-01T03:01:15;40.38;;;21.95;;
46322;SDS011;32044;52.386;13.278;2023-03-01T03:03:42;42.90;;;22.80;;
46322;SDS011;32044;52.386;13.278;2023-03-01T03:06:10;42.97;;;24.65;;
46322;SDS011;32044;52.386;13.278;2023-03-01T03:08:38;49.25;;;23.85;;
46322;SDS011;32044;52.386;13.278;2023-03-01T03:11:05;46.75;;;25.20;;
46322;SDS011;32044;52.386;13.278;2023-03-01T03:13:33;43.72;;;23.35;;
46322;SDS011;32044;52.386;13.278;2023-03-01T03:16:09;46.17;;;25.80;;
46322;SDS011;32044;52.386;13.278;2023-03-01T03:18:38;41.58;;;24.02;;
46322;SDS011;32044;52.386;13.278;2023-03-01T03:21:07;39.88;;;23.27;;
46322;SDS011;32044;52.386;13.278;2023-03-01T03:23:36;42.10;;;23.35;;
46322;SDS011;32044;52.386;13.278;2023-03-01T03:26:04;43.20;;;24.67;;
46322;SDS011;32044;52.386;13.278;2023-03-01T03:28:32;41.28;;;23.63;;
46322;SDS011;32044;52.386;13.278;2023-03-01T03:31:00;47.72;;;24.83;;
46322;SDS011;32044;52.386;13.278;2023-03-01T03:33:29;41.92;;;24.25;;
46322;SDS011;32044;52.386;13.278;2023-03-01T03:35:58;45.88;;;23.42;;
46322;SDS011;32044;52.386;13.278;2023-03-01T03:38:26;40.50;;;22.15;;
46322;SDS011;32044;52.386;13.278;2023-03-01T03:40:59;38.85;;;22.35;;
46322;SDS011;32044;52.386;13.278;2023-03-01T03:43:29;39.22;;;24.55;;
46322;SDS011;32044;52.386;13.278;2023-03-01T03:45:57;44.53;;;24.58;;
46322;SDS011;32044;52.386;13.278;2023-03-01T03:48:25;45.83;;;25.38;;
46322;SDS011;32044;52.386;13.278;2023-03-01T03:50:54;41.83;;;24.38;;
46322;SDS011;32044;52.386;13.278;2023-03-01T03:53:24;48.58;;;24.65;;
46322;SDS011;32044;52.386;13.278;2023-03-01T03:55:54;42.33;;;25.15;;
46322;SDS011;32044;52.386;13.278;2023-03-01T03:58:22;41.15;;;23.65;;
46322;SDS011;32044;52.386;13.278;2023-03-01T04:00:52;41.97;;;23.75;;
46322;SDS011;32044;52.386;13.278;2023-03-01T04:03:22;42.85;;;23.90;;
46322;SDS011;32044;52.386;13.278;2023-03-01T04:05:50;48.65;;;25.80;;
46322;SDS011;32044;52.386;13.278;2023-03-01T04:08:18;44.80;;;25.25;;
46322;SDS011;32044;52.386;13.278;2023-03-01T04:10:49;43.28;;;24.50;;
46322;SDS011;32044;52.386;13.278;2023-03-01T04:13:19;47.92;;;25.55;;
46322;SDS011;32044;52.386;13.278;2023-03-01T04:15:47;47.15;;;24.92;;
46322;SDS011;32044;52.386;13.278;2023-03-01T04:18:16;42.28;;;23.20;;
46322;SDS011;32044;52.386;13.278;2023-03-01T04:20:45;40.60;;;23.70;;
46322;SDS011;32044;52.386;13.278;2023-03-01T04:23:14;43.15;;;23.83;;
46322;SDS011;32044;52.386;13.278;2023-03-01T04:25:45;42.28;;;24.20;;
46322;SDS011;32044;52.386;13.278;2023-03-01T04:28:16;47.73;;;23.97;;
46322;SDS011;32044;52.386;13.278;2023-03-01T04:30:44;39.85;;;23.10;;
46322;SDS011;32044;52.386;13.278;2023-03-01T04:33:11;33.53;;;20.77;;
46322;SDS011;32044;52.386;13.278;2023-03-01T04:35:39;41.17;;;21.90;;
46322;SDS011;32044;52.386;13.278;2023-03-01T04:38:07;35.83;;;22.15;;
46322;SDS011;32044;52.386;13.278;2023-03-01T04:40:35;39.80;;;21.70;;
46322;SDS011;32044;52.386;13.278;2023-03-01T04:43:03;41.97;;;23.25;;
46322;SDS011;32044;52.386;13.278;2023-03-01T04:45:32;42.28;;;23.08;;
46322;SDS011;32044;52.386;13.278;2023-03-01T04:48:01;39.77;;;23.53;;
46322;SDS011;32044;52.386;13.278;2023-03-01T04:50:29;38.13;;;21.77;;
46322;SDS011;32044;52.386;13.278;2023-03-01T04:52:57;43.08;;;23.45;;
46322;SDS011;32044;52.386;13.278;2023-03-01T04:55:25;43.28;;;24.70;;
46322;SDS011;32044;52.386;13.278;2023-03-01T04:57:53;37.05;;;21.70;;
46322;SDS011;32044;52.386;13.278;2023-03-01T05:00:21;40.78;;;23.50;;
46322;SDS011;32044;52.386;13.278;2023-03-01T05:02:52;40.78;;;22.17;;
46322;SDS011;32044;52.386;13.278;2023-03-01T05:05:21;39.53;;;21.60;;
46322;SDS011;32044;52.386;13.278;2023-03-01T05:07:52;39.00;;;21.98;;
46322;SDS011;32044;52.386;13.278;2023-03-01T05:10:21;36.38;;;20.85;;
46322;SDS011;32044;52.386;13.278;2023-03-01T05:12:48;41.20;;;22.20;;
46322;SDS011;32044;52.386;13.278;2023-03-01T05:15:18;37.95;;;19.90;;
46322;SDS011;32044;52.386;13.278;2023-03-01T05:17:48;34.95;;;19.95;;
46322;SDS011;32044;52.386;13.278;2023-03-01T05:20:17;35.35;;;21.40;;
46322;SDS011;32044;52.386;13.278;2023-03-01T05:22:49;41.67;;;22.25;;
46322;SDS011;32044;52.386;13.278;2023-03-01T05:25:17;41.80;;;22.00;;
46322;SDS011;32044;52.386;13.278;2023-03-01T05:27:45;40.10;;;21.80;;
46322;SDS011;32044;52.386;13.278;2023-03-01T05:30:12;37.58;;;20.83;;
46322;SDS011;32044;52.386;13.278;2023-03-01T05:32:41;33.90;;;20.13;;
46322;SDS011;32044;52.386;13.278;2023-03-01T05:35:11;37.70;;;21.70;;
46322;SDS011;32044;52.386;13.278;2023-03-01T05:37:42;36.20;;;20.58;;
46322;SDS011;32044;52.386;13.278;2023-03-01T05:40:11;37.40;;;20.60;;
46322;SDS011;32044;52.386;13.278;2023-03-01T05:42:45;37.30;;;18.92;;
46322;SDS011;32044;52.386;13.278;2023-03-01T05:45:14;30.95;;;18.77;;
46322;SDS011;32044;52.386;13.278;2023-03-01T05:47:43;35.05;;;20.33;;
46322;SDS011;32044;52.386;13.278;2023-03-01T05:50:12;36.67;;;20.85;;
46322;SDS011;32044;52.386;13.278;2023-03-01T05:52:46;37.30;;;21.10;;
46322;SDS011;32044;52.386;13.278;2023-03-01T05:55:15;36.10;;;21.42;;
46322;SDS011;32044;52.386;13.278;2023-03-01T05:57:43;36.47;;;20.67;;
46322;SDS011;32044;52.386;13.278;2023-03-01T06:00:11;35.13;;;20.23;;
46322;SDS011;32044;52.386;13.278;2023-03-01T06:02:40;36.88;;;20.88;;
46322;SDS011;32044;52.386;13.278;2023-03-01T06:05:08;40.33;;;22.45;;
46322;SDS011;32044;52.386;13.278;2023-03-01T06:07:36;40.55;;;22.77;;
46322;SDS011;32044;52.386;13.278;2023-03-01T06:10:07;38.42;;;22.05;;
46322;SDS011;32044;52.386;13.278;2023-03-01T06:12:37;38.03;;;20.95;;
46322;SDS011;32044;52.386;13.278;2023-03-01T06:15:05;33.50;;;19.75;;
46322;SDS011;32044;52.386;13.278;2023-03-01T06:17:36;25.50;;;14.90;;
46322;SDS011;32044;52.386;13.278;2023-03-01T06:20:05;35.80;;;20.92;;
46322;SDS011;32044;52.386;13.278;2023-03-01T06:22:35;41.10;;;21.25;;
46322;SDS011;32044;52.386;13.278;2023-03-01T06:25:02;36.25;;;20.00;;
46322;SDS011;32044;52.386;13.278;2023-03-01T06:27:32;33.60;;;18.30;;
46322;SDS011;32044;52.386;13.278;2023-03-01T06:29:59;39.25;;;20.05;;
46322;SDS011;32044;52.386;13.278;2023-03-01T06:32:27;34.38;;;20.95;;
46322;SDS011;32044;52.386;13.278;2023-03-01T06:34:55;35.90;;;18.95;;
46322;SDS011;32044;52.386;13.278;2023-03-01T06:37:22;33.38;;;18.02;;
46322;SDS011;32044;52.386;13.278;2023-03-01T06:39:50;29.23;;;17.83;;
46322;SDS011;32044;52.386;13.278;2023-03-01T06:42:17;28.00;;;17.40;;
46322;SDS011;32044;52.386;13.278;2023-03-01T06:44:46;31.60;;;18.88;;
46322;SDS011;32044;52.386;13.278;2023-03-01T06:47:13;31.23;;;16.50;;
46322;SDS011;32044;52.386;13.278;2023-03-01T06:49:41;26.70;;;16.30;;
46322;SDS011;32044;52.386;13.278;2023-03-01T06:52:08;27.52;;;16.38;;
46322;SDS011;32044;52.386;13.278;2023-03-01T06:54:36;34.63;;;15.93;;
46322;SDS011;32044;52.386;13.278;2023-03-01T06:57:04;39.60;;;16.10;;
46322;SDS011;32044;52.386;13.278;2023-03-01T06:59:31;27.55;;;15.68;;
46322;SDS011;32044;52.386;13.278;2023-03-01T07:02:00;29.30;;;15.07;;
46322;SDS011;32044;52.386;13.278;2023-03-01T07:04:27;28.00;;;15.95;;
46322;SDS011;32044;52.386;13.278;2023-03-01T07:06:57;24.52;;;15.38;;
46322;SDS011;32044;52.386;13.278;2023-03-01T07:09:25;23.45;;;14.32;;
46322;SDS011;32044;52.386;13.278;2023-03-01T07:11:52;19.92;;;12.93;;
46322;SDS011;32044;52.386;13.278;2023-03-01T07:14:20;24.33;;;13.20;;
46322;SDS011;32044;52.386;13.278;2023-03-01T07:16:47;22.80;;;14.55;;
46322;SDS011;32044;52.386;13.278;2023-03-01T07:19:16;25.23;;;13.43;;
46322;SDS011;32044;52.386;13.278;2023-03-01T07:21:44;22.77;;;13.80;;
46322;SDS011;32044;52.386;13.278;2023-03-01T07:24:11;19.20;;;12.75;;
46322;SDS011;32044;52.386;13.278;2023-03-01T07:26:39;21.80;;;13.00;;
46322;SDS011;32044;52.386;13.278;2023-03-01T07:29:07;22.60;;;12.70;;
46322;SDS011;32044;52.386;13.278;2023-03-01T07:31:35;26.02;;;14.23;;
46322;SDS011;32044;52.386;13.278;2023-03-01T07:34:03;25.42;;;13.90;;
46322;SDS011;32044;52.386;13.278;2023-03-01T07:36:32;28.25;;;15.30;;
46322;SDS011;32044;52.386;13.278;2023-03-01T07:39:00;24.27;;;15.57;;
46322;SDS011;32044;52.386;13.278;2023-03-01T07:41:29;22.48;;;14.48;;
46322;SDS011;32044;52.386;13.278;2023-03-01T07:43:56;21.95;;;13.85;;
46322;SDS011;32044;52.386;13.278;2023-03-01T07:46:24;27.00;;;15.30;;
46322;SDS011;32044;52.386;13.278;2023-03-01T07:48:51;25.00;;;15.73;;
46322;SDS011;32044;52.386;13.278;2023-03-01T07:51:19;23.10;;;14.60;;
46322;SDS011;32044;52.386;13.278;2023-03-01T07:53:48;23.77;;;14.77;;
46322;SDS011;32044;52.386;13.278;2023-03-01T07:56:25;24.42;;;14.40;;
46322;SDS011;32044;52.386;13.278;2023-03-01T07:58:52;21.83;;;14.68;;
46322;SDS011;32044;52.386;13.278;2023-03-01T08:01:21;22.55;;;16.17;;
46322;SDS011;32044;52.386;13.278;2023-03-01T08:03:48;26.20;;;16.58;;
46322;SDS011;32044;52.386;13.278;2023-03-01T08:06:16;25.25;;;15.48;;
46322;SDS011;32044;52.386;13.278;2023-03-01T08:08:45;25.10;;;14.93;;
46322;SDS011;32044;52.386;13.278;2023-03-01T08:11:14;25.42;;;16.38;;
46322;SDS011;32044;52.386;13.278;2023-03-01T08:13:42;23.48;;;15.75;;
46322;SDS011;32044;52.386;13.278;2023-03-01T08:16:11;22.77;;;15.15;;
46322;SDS011;32044;52.386;13.278;2023-03-01T08:18:40;24.55;;;14.60;;
46322;SDS011;32044;52.386;13.278;2023-03-01T08:21:09;20.20;;;14.75;;
46322;SDS011;32044;52.386;13.278;2023-03-01T08:23:37;22.10;;;14.93;;
46322;SDS011;32044;52.386;13.278;2023-03-01T08:26:06;23.35;;;15.52;;
46322;SDS011;32044;52.386;13.278;2023-03-01T08:28:36;25.95;;;16.25;;
46322;SDS011;32044;52.386;13.278;2023-03-01T08:31:12;24.67;;;15.80;;
46322;SDS011;32044;52.386;13.278;2023-03-01T08:33:41;26.08;;;15.55;;
46322;SDS011;32044;52.386;13.278;2023-03-01T08:36:08;27.40;;;16.33;;
46322;SDS011;32044;52.386;13.278;2023-03-01T08:38:36;23.23;;;14.55;;
46322;SDS011;32044;52.386;13.278;2023-03-01T08:41:04;23.35;;;15.60;;
46322;SDS011;32044;52.386;13.278;2023-03-01T08:43:31;24.73;;;16.80;;
46322;SDS011;32044;52.386;13.278;2023-03-01T08:46:00;25.02;;;16.58;;
46322;SDS011;32044;52.386;13.278;2023-03-01T08:48:28;25.67;;;15.18;;
46322;SDS011;32044;52.386;13.278;2023-03-01T08:50:55;24.15;;;15.68;;
46322;SDS011;32044;52.386;13.278;2023-03-01T08:53:23;22.20;;;16.20;;
46322;SDS011;32044;52.386;13.278;2023-03-01T08:55:50;24.92;;;15.75;;
46322;SDS011;32044;52.386;13.278;2023-03-01T08:58:18;21.40;;;14.65;;
46322;SDS011;32044;52.386;13.278;2023-03-01T09:00:45;21.08;;;13.95;;
46322;SDS011;32044;52.386;13.278;2023-03-01T09:03:14;20.35;;;13.40;;
46322;SDS011;32044;52.386;13.278;2023-03-01T09:05:42;21.88;;;14.13;;
46322;SDS011;32044;52.386;13.278;2023-03-01T09:08:12;24.73;;;13.25;;
46322;SDS011;32044;52.386;13.278;2023-03-01T09:10:39;18.35;;;11.68;;
46322;SDS011;32044;52.386;13.278;2023-03-01T09:13:07;18.20;;;11.90;;
46322;SDS011;32044;52.386;13.278;2023-03-01T09:15:36;21.17;;;12.20;;
46322;SDS011;32044;52.386;13.278;2023-03-01T09:18:03;18.58;;;11.20;;
46322;SDS011;32044;52.386;13.278;2023-03-01T09:20:32;21.52;;;11.05;;
46322;SDS011;32044;52.386;13.278;2023-03-01T09:23:00;17.33;;;10.18;;
46322;SDS011;32044;52.386;13.278;2023-03-01T09:25:29;17.63;;;10.60;;
46322;SDS011;32044;52.386;13.278;2023-03-01T09:27:56;15.32;;;10.13;;
46322;SDS011;32044;52.386;13.278;2023-03-01T09:30:24;15.75;;;10.48;;
46322;SDS011;32044;52.386;13.278;2023-03-01T09:32:51;18.05;;;10.77;;
46322;SDS011;32044;52.386;13.278;2023-03-01T09:35:19;12.77;;;9.70;;
46322;SDS011;32044;52.386;13.278;2023-03-01T09:37:50;15.27;;;9.52;;
46322;SDS011;32044;52.386;13.278;2023-03-01T09:40:19;12.55;;;8.60;;
46322;SDS011;32044;52.386;13.278;2023-03-01T09:42:51;16.50;;;10.15;;
46322;SDS011;32044;52.386;13.278;2023-03-01T09:45:25;16.30;;;9.73;;
46322;SDS011;32044;52.386;13.278;2023-03-01T09:47:54;16.35;;;10.38;;
46322;SDS011;32044;52.386;13.278;2023-03-01T09:50:22;12.93;;;9.10;;
46322;SDS011;32044;52.386;13.278;2023-03-01T09:52:53;16.13;;;9.98;;
46322;SDS011;32044;52.386;13.278;2023-03-01T09:55:26;13.05;;;9.45;;
46322;SDS011;32044;52.386;13.278;2023-03-01T10:00:28;14.73;;;9.07;;
46322;SDS011;32044;52.386;13.278;2023-03-01T10:03:03;18.02;;;9.30;;
46322;SDS011;32044;52.386;13.278;2023-03-01T10:05:41;18.13;;;10.15;;
46322;SDS011;32044;52.386;13.278;2023-03-01T10:08:26;17.13;;;10.63;;
46322;SDS011;32044;52.386;13.278;2023-03-01T10:10:57;18.77;;;10.93;;
46322;SDS011;32044;52.386;13.278;2023-03-01T10:13:26;13.32;;;8.95;;
46322;SDS011;32044;52.386;13.278;2023-03-01T10:15:56;14.65;;;9.00;;
46322;SDS011;32044;52.386;13.278;2023-03-01T10:18:26;14.73;;;8.77;;
46322;SDS011;32044;52.386;13.278;2023-03-01T10:20:56;14.07;;;9.20;;
46322;SDS011;32044;52.386;13.278;2023-03-01T10:23:26;14.95;;;8.70;;
46322;SDS011;32044;52.386;13.278;2023-03-01T10:25:59;18.97;;;9.43;;
46322;SDS011;32044;52.386;13.278;2023-03-01T10:28:37;13.52;;;8.95;;
46322;SDS011;32044;52.386;13.278;2023-03-01T10:31:11;12.38;;;8.85;;
46322;SDS011;32044;52.386;13.278;2023-03-01T10:33:40;14.27;;;9.10;;
46322;SDS011;32044;52.386;13.278;2023-03-01T10:36:08;17.95;;;9.57;;
46322;SDS011;32044;52.386;13.278;2023-03-01T10:38:48;11.50;;;8.25;;
46322;SDS011;32044;52.386;13.278;2023-03-01T10:41:20;13.82;;;8.48;;
46322;SDS011;32044;52.386;13.278;2023-03-01T10:43:50;12.02;;;8.27;;
46322;SDS011;32044;52.386;13.278;2023-03-01T10:46:27;14.27;;;8.90;;
46322;SDS011;32044;52.386;13.278;2023-03-01T10:49:06;13.57;;;8.85;;
46322;SDS011;32044;52.386;13.278;2023-03-01T10:51:35;12.35;;;8.68;;
46322;SDS011;32044;52.386;13.278;2023-03-01T10:54:04;18.13;;;9.18;;
46322;SDS011;32044;52.386;13.278;2023-03-01T10:56:45;13.75;;;8.35;;
46322;SDS011;32044;52.386;13.278;2023-03-01T10:59:20;12.57;;;9.00;;
46322;SDS011;32044;52.386;13.278;2023-03-01T11:02:04;13.65;;;8.50;;
46322;SDS011;32044;52.386;13.278;2023-03-01T11:04:57;11.20;;;8.10;;
46322;SDS011;32044;52.386;13.278;2023-03-01T11:07:26;12.75;;;8.43;;
46322;SDS011;32044;52.386;13.278;2023-03-01T11:09:55;14.25;;;8.25;;
46322;SDS011;32044;52.386;13.278;2023-03-01T11:12:22;13.45;;;8.30;;
46322;SDS011;32044;52.386;13.278;2023-03-01T11:14:52;14.35;;;8.27;;
46322;SDS011;32044;52.386;13.278;2023-03-01T11:17:21;17.08;;;8.57;;
46322;SDS011;32044;52.386;13.278;2023-03-01T11:20:02;10.60;;;7.40;;
46322;SDS011;32044;52.386;13.278;2023-03-01T11:22:34;13.25;;;8.50;;
46322;SDS011;32044;52.386;13.278;2023-03-01T11:25:05;14.77;;;7.95;;
46322;SDS011;32044;52.386;13.278;2023-03-01T11:27:36;10.68;;;7.63;;
46322;SDS011;32044;52.386;13.278;2023-03-01T11:30:07;15.35;;;8.55;;
46322;SDS011;32044;52.386;13.278;2023-03-01T11:32:44;12.32;;;8.07;;
46322;SDS011;32044;52.386;13.278;2023-03-01T11:35:14;18.15;;;8.65;;
46322;SDS011;32044;52.386;13.278;2023-03-01T11:37:44;10.85;;;8.00;;
46322;SDS011;32044;52.386;13.278;2023-03-01T11:40:23;12.95;;;7.15;;
46322;SDS011;32044;52.386;13.278;2023-03-01T11:42:54;16.40;;;9.23;;
46322;SDS011;32044;52.386;13.278;2023-03-01T11:45:30;13.43;;;8.77;;
46322;SDS011;32044;52.386;13.278;2023-03-01T11:48:07;15.27;;;8.15;;
46322;SDS011;32044;52.386;13.278;2023-03-01T11:50:45;13.40;;;8.65;;
46322;SDS011;32044;52.386;13.278;2023-03-01T11:53:29;12.43;;;7.28;;
46322;SDS011;32044;52.386;13.278;2023-03-01T11:56:09;10.35;;;6.35;;
46322;SDS011;32044;52.386;13.278;2023-03-01T11:58:53;13.90;;;6.10;;
46322;SDS011;32044;52.386;13.278;2023-03-01T12:01:32;10.05;;;5.65;;
46322;SDS011;32044;52.386;13.278;2023-03-01T12:04:19;10.93;;;5.22;;
46322;SDS011;32044;52.386;13.278;2023-03-01T12:07:24;6.53;;;4.88;;
46322;SDS011;32044;52.386;13.278;2023-03-01T12:10:01;6.80;;;4.70;;
46322;SDS011;32044;52.386;13.278;2023-03-01T12:12:48;9.13;;;4.97;;
46322;SDS011;32044;52.386;13.278;2023-03-01T12:21:09;9.55;;;4.85;;
46322;SDS011;32044;52.386;13.278;2023-03-01T12:23:46;9.25;;;4.82;;
46322;SDS011;32044;52.386;13.278;2023-03-01T12:26:24;11.43;;;4.95;;
46322;SDS011;32044;52.386;13.278;2023-03-01T12:28:58;12.23;;;5.00;;
46322;SDS011;32044;52.386;13.278;2023-03-01T12:31:36;10.75;;;5.00;;
46322;SDS011;32044;52.386;13.278;2023-03-01T12:34:15;14.38;;;6.00;;
46322;SDS011;32044;52.386;13.278;2023-03-01T12:36:55;12.03;;;5.80;;
46322;SDS011;32044;52.386;13.278;2023-03-01T12:39:38;12.52;;;6.32;;
46322;SDS011;32044;52.386;13.278;2023-03-01T12:42:13;10.30;;;6.47;;
46322;SDS011;32044;52.386;13.278;2023-03-01T12:44:50;12.57;;;6.47;;
46322;SDS011;32044;52.386;13.278;2023-03-01T12:47:30;13.05;;;6.82;;
46322;SDS011;32044;52.386;13.278;2023-03-01T12:50:11;16.02;;;7.00;;
46322;SDS011;32044;52.386;13.278;2023-03-01T12:52:43;14.70;;;6.85;;
46322;SDS011;32044;52.386;13.278;2023-03-01T12:55:17;10.40;;;6.45;;
46322;SDS011;32044;52.386;13.278;2023-03-01T12:57:51;11.98;;;6.90;;
46322;SDS011;32044;52.386;13.278;2023-03-01T13:00:26;11.55;;;6.63;;
46322;SDS011;32044;52.386;13.278;2023-03-01T13:02:58;11.38;;;6.68;;
46322;SDS011;32044;52.386;13.278;2023-03-01T13:05:32;11.65;;;7.00;;
46322;SDS011;32044;52.386;13.278;2023-03-01T13:08:06;13.43;;;6.50;;
46322;SDS011;32044;52.386;13.278;2023-03-01T13:13:14;13.50;;;6.43;;
46322;SDS011;32044;52.386;13.278;2023-03-01T13:15:47;10.98;;;5.93;;
46322;SDS011;32044;52.386;13.278;2023-03-01T13:18:26;9.10;;;5.68;;
46322;SDS011;32044;52.386;13.278;2023-03-01T13:20:55;14.15;;;6.10;;
46322;SDS011;32044;52.386;13.278;2023-03-01T13:23:25;9.73;;;5.75;;
46322;SDS011;32044;52.386;13.278;2023-03-01T13:26:04;10.15;;;6.13;;
46322;SDS011;32044;52.386;13.278;2023-03-01T13:28:50;13.40;;;6.53;;
46322;SDS011;32044;52.386;13.278;2023-03-01T13:34:51;12.02;;;5.93;;
46322;SDS011;32044;52.386;13.278;2023-03-01T13:37:22;14.82;;;6.05;;
46322;SDS011;32044;52.386;13.278;2023-03-01T13:40:01;14.70;;;5.95;;
46322;SDS011;32044;52.386;13.278;2023-03-01T13:42:42;8.85;;;5.80;;
46322;SDS011;32044;52.386;13.278;2023-03-01T13:45:33;8.68;;;5.30;;
46322;SDS011;32044;52.386;13.278;2023-03-01T13:48:08;9.38;;;4.70;;
46322;SDS011;32044;52.386;13.278;2023-03-01T13:50:46;7.88;;;4.93;;
46322;SDS011;32044;52.386;13.278;2023-03-01T13:53:17;13.05;;;4.80;;
46322;SDS011;32044;52.386;13.278;2023-03-01T13:55:46;9.98;;;4.40;;
46322;SDS011;32044;52.386;13.278;2023-03-01T13:58:16;8.77;;;4.43;;
46322;SDS011;32044;52.386;13.278;2023-03-01T14:00:47;14.15;;;4.50;;
46322;SDS011;32044;52.386;13.278;2023-03-01T14:03:15;8.73;;;3.90;;
46322;SDS011;32044;52.386;13.278;2023-03-01T14:05:57;6.60;;;3.70;;
46322;SDS011;32044;52.386;13.278;2023-03-01T14:08:41;7.72;;;3.97;;
46322;SDS011;32044;52.386;13.278;2023-03-01T14:11:21;7.78;;;3.50;;
46322;SDS011;32044;52.386;13.278;2023-03-01T14:14:13;6.90;;;4.15;;
46322;SDS011;32044;52.386;13.278;2023-03-01T14:16:48;6.47;;;3.78;;
46322;SDS011;32044;52.386;13.278;2023-03-01T14:19:23;11.20;;;4.03;;
46322;SDS011;32044;52.386;13.278;2023-03-01T14:22:02;9.18;;;3.53;;
46322;SDS011;32044;52.386;13.278;2023-03-01T14:24:33;6.05;;;3.78;;
46322;SDS011;32044;52.386;13.278;2023-03-01T14:27:09;8.65;;;3.95;;
46322;SDS011;32044;52.386;13.278;2023-03-01T14:29:38;8.48;;;4.07;;
46322;SDS011;32044;52.386;13.278;2023-03-01T14:32:17;6.38;;;3.60;;
46322;SDS011;32044;52.386;13.278;2023-03-01T14:34:47;7.65;;;3.30;;
46322;SDS011;32044;52.386;13.278;2023-03-01T14:37:19;6.60;;;3.53;;
46322;SDS011;32044;52.386;13.278;2023-03-01T14:39:48;5.15;;;3.40;;
46322;SDS011;32044;52.386;13.278;2023-03-01T14:42:16;5.80;;;3.25;;
46322;SDS011;32044;52.386;13.278;2023-03-01T14:44:44;8.05;;;3.78;;
46322;SDS011;32044;52.386;13.278;2023-03-01T14:47:14;8.13;;;4.05;;
46322;SDS011;32044;52.386;13.278;2023-03-01T14:49:43;7.65;;;2.92;;
46322;SDS011;32044;52.386;13.278;2023-03-01T14:52:19;8.73;;;3.70;;